Time;durP1;ratioP1;P1;durP2;ratioP2;P2;SDS_P1;SDS_P2;PMS_P1;PMS_P2;Temp;Humidity;BMP_temperature;BMP_pressure;BME280_temperature;BME280_humidity;BME280_pressure;Samples;Min_cycle;Max_cycle;Signal;HPM_P1;HPM_P2
2021/08/11 00:00:49;;;;;;;5.63;5.13;;;22.40;90.50;;;;;;6268691;22;20066;-96
2021/08/11 00:03:14;;;;;;;6.05;5.45;;;22.40;90.60;;;;;;6264769;22;19995;-96
2021/08/11 00:05:41;;;;;;;6.50;4.63;;;22.40;90.80;;;;;;6264236;22;19999;-96
2021/08/11 00:08:09;;;;;;;5.90;5.30;;;22.30;90.80;;;;;;6266891;22;19999;-96
2021/08/11 00:10:42;;;;;;;5.18;4.68;;;22.30;91.00;;;;;;6295741;22;20004;-96
2021/08/11 00:13:10;;;;;;;5.47;4.97;;;22.30;91.10;;;;;;6264802;22;19996;-96
2021/08/11 00:15:36;;;;;;;5.53;5.00;;;22.30;91.30;;;;;;6268083;22;20030;-95
2021/08/11 00:18:07;;;;;;;5.35;4.85;;;22.20;91.30;;;;;;6269246;22;20000;-96
2021/08/11 00:20:35;;;;;;;7.93;5.57;;;22.20;91.30;;;;;;6266981;22;20007;-96
2021/08/11 00:23:01;;;;;;;5.93;5.00;;;22.10;91.50;;;;;;6269736;22;20007;-96
2021/08/11 00:25:27;;;;;;;7.28;5.88;;;22.10;91.50;;;;;;6265948;22;19996;-96
2021/08/11 00:27:54;;;;;;;5.45;4.95;;;22.10;91.60;;;;;;6267711;22;20011;-96
2021/08/11 00:30:20;;;;;;;5.78;5.20;;;22.10;91.70;;;;;;6265975;22;20011;-96
2021/08/11 00:32:46;;;;;;;6.72;5.80;;;22.00;91.80;;;;;;6265235;22;20059;-96
2021/08/11 00:35:12;;;;;;;5.90;5.32;;;22.00;91.90;;;;;;6289738;22;20007;-96
2021/08/11 00:37:38;;;;;;;5.70;5.07;;;21.90;92.10;;;;;;6261137;22;19996;-96
2021/08/11 00:40:06;;;;;;;9.20;5.20;;;21.90;92.00;;;;;;6289450;22;20022;-96
2021/08/11 00:42:32;;;;;;;6.88;5.75;;;21.90;92.40;;;;;;6266951;22;20004;-95
2021/08/11 00:45:05;;;;;;;6.57;5.82;;;21.90;92.50;;;;;;6265563;22;20000;-96
2021/08/11 00:47:36;;;;;;;6.50;5.40;;;21.80;92.90;;;;;;6265842;22;20004;-96
2021/08/11 00:50:06;;;;;;;7.93;5.88;;;21.80;92.90;;;;;;6266319;22;20082;-96
2021/08/11 00:52:37;;;;;;;5.90;5.25;;;21.80;93.00;;;;;;6264283;22;20423;-96
2021/08/11 00:55:04;;;;;;;6.00;5.40;;;21.80;93.10;;;;;;6264608;22;20000;-95
2021/08/11 00:57:38;;;;;;;6.57;5.90;;;21.80;93.10;;;;;;6271727;22;20000;-96
2021/08/11 01:00:08;;;;;;;7.00;5.63;;;21.80;93.30;;;;;;6257371;22;20015;-96
2021/08/11 01:02:39;;;;;;;7.30;5.50;;;21.80;93.40;;;;;;6262626;23;19992;-96
2021/08/11 01:05:08;;;;;;;6.43;5.82;;;21.80;93.80;;;;;;6264539;22;19999;-96
2021/08/11 01:07:38;;;;;;;5.88;5.25;;;21.70;93.60;;;;;;6295134;22;20002;-96
2021/08/11 01:10:07;;;;;;;5.68;5.18;;;21.70;93.50;;;;;;6294024;22;20031;-96
2021/08/11 01:12:34;;;;;;;5.68;5.18;;;21.70;93.50;;;;;;6299150;22;20009;-96
2021/08/11 01:15:02;;;;;;;5.95;5.35;;;21.70;93.50;;;;;;6294469;22;20012;-96
2021/08/11 01:17:36;;;;;;;6.35;5.60;;;21.70;93.70;;;;;;6293359;22;20074;-96
2021/08/11 01:20:04;;;;;;;6.07;4.85;;;21.70;93.80;;;;;;6294534;22;20008;-96
2021/08/11 01:22:59;;;;;;;6.07;5.47;;;21.60;93.80;;;;;;6294772;22;20378;-96
2021/08/11 01:25:41;;;;;;;10.93;5.70;;;21.60;94.00;;;;;;6293079;22;20063;-95
2021/08/11 01:28:24;;;;;;;6.30;5.68;;;21.60;94.20;;;;;;6294702;22;20000;-96
2021/08/11 01:31:03;;;;;;;5.15;4.65;;;21.60;94.00;;;;;;6290760;22;20083;-96
2021/08/11 01:33:57;;;;;;;5.70;4.95;;;21.50;94.20;;;;;;6297943;22;20059;-96
2021/08/11 01:36:55;;;;;;;6.68;5.45;;;21.50;94.50;;;;;;6274149;22;20059;-96
2021/08/11 01:39:37;;;;;;;6.22;5.57;;;21.50;94.40;;;;;;6270064;22;20015;-96
2021/08/11 01:42:11;;;;;;;6.45;5.68;;;21.50;94.50;;;;;;6300800;22;20008;-94
2021/08/11 01:44:50;;;;;;;6.47;5.88;;;21.40;94.70;;;;;;6300269;22;20019;-95
2021/08/11 01:47:22;;;;;;;6.18;5.43;;;21.40;94.70;;;;;;6295260;22;20931;-95
2021/08/11 01:49:53;;;;;;;10.63;6.32;;;21.40;94.90;;;;;;6275735;22;20044;-94
2021/08/11 01:52:23;;;;;;;7.50;6.35;;;21.30;95.00;;;;;;6277254;22;20026;-95
2021/08/11 01:54:50;;;;;;;8.85;5.97;;;21.30;95.00;;;;;;6272324;22;20003;-96
2021/08/11 01:57:21;;;;;;;6.03;5.43;;;21.30;95.00;;;;;;6274417;22;20008;-96
2021/08/11 01:59:51;;;;;;;6.03;5.43;;;21.30;95.00;;;;;;6272014;22;20004;-96
2021/08/11 02:02:30;;;;;;;6.45;5.68;;;21.20;95.00;;;;;;6298853;22;20003;-96
2021/08/11 02:04:59;;;;;;;7.70;6.18;;;21.20;95.20;;;;;;6285912;22;20003;-96
2021/08/11 02:07:28;;;;;;;6.15;5.55;;;21.20;95.30;;;;;;6304869;22;19983;-96
2021/08/11 02:10:18;;;;;;;6.55;4.90;;;21.20;95.20;;;;;;6328290;22;20003;-96
2021/08/11 02:12:48;;;;;;;8.50;5.57;;;21.10;95.40;;;;;;6301669;22;20010;-95
2021/08/11 02:15:16;;;;;;;6.70;5.80;;;21.10;95.30;;;;;;6300360;22;20049;-96
2021/08/11 02:17:46;;;;;;;7.72;5.82;;;21.10;95.30;;;;;;6324900;22;20019;-96
2021/08/11 02:20:15;;;;;;;6.70;5.75;;;21.10;95.50;;;;;;6299942;22;20011;-96
2021/08/11 02:22:41;;;;;;;7.15;6.45;;;21.10;95.50;;;;;;6302075;22;20011;-96
2021/08/11 02:25:10;;;;;;;6.10;5.57;;;21.10;95.70;;;;;;6299564;22;19996;-96
2021/08/11 02:27:49;;;;;;;5.90;5.30;;;21.00;95.70;;;;;;6300164;22;20088;-96
2021/08/11 02:30:24;;;;;;;6.30;5.70;;;21.00;95.60;;;;;;6296812;22;20338;-96
2021/08/11 02:36:32;;;;;;;6.10;5.50;;;21.00;96.30;;;;;;6231602;22;20025;-96
2021/08/11 02:39:12;;;;;;;6.50;5.78;;;21.00;96.20;;;;;;6299457;22;20008;-96
2021/08/11 02:41:47;;;;;;;6.40;5.80;;;21.00;96.10;;;;;;6294895;22;20006;-96
2021/08/11 02:44:31;;;;;;;6.00;5.40;;;20.90;96.10;;;;;;6294125;22;20010;-96
2021/08/11 02:46:58;;;;;;;5.90;5.30;;;21.00;96.20;;;;;;6294990;22;20063;-96
2021/08/11 02:49:32;;;;;;;6.40;5.80;;;20.90;96.00;;;;;;6297908;22;20077;-96
2021/08/11 02:52:02;;;;;;;7.00;5.90;;;20.90;96.30;;;;;;6299620;22;20002;-96
2021/08/11 02:54:30;;;;;;;7.28;6.05;;;20.90;96.50;;;;;;6292823;22;20000;-96
2021/08/11 02:56:57;;;;;;;6.68;6.07;;;20.90;96.50;;;;;;6292430;22;20002;-95
2021/08/11 02:59:27;;;;;;;6.40;5.80;;;20.90;96.50;;;;;;6290899;22;20003;-96
2021/08/11 03:01:54;;;;;;;9.95;5.93;;;20.90;96.40;;;;;;6295095;22;20144;-96
2021/08/11 03:04:23;;;;;;;6.60;5.80;;;20.90;96.50;;;;;;6288711;22;20015;-96
2021/08/11 03:06:49;;;;;;;7.38;5.20;;;20.90;96.40;;;;;;6288084;22;20021;-96
2021/08/11 03:09:15;;;;;;;6.82;5.68;;;20.90;96.40;;;;;;6318887;22;19995;-95
2021/08/11 03:11:41;;;;;;;6.93;6.20;;;20.90;96.50;;;;;;6292331;22;20304;-96
2021/08/11 03:14:12;;;;;;;7.68;6.90;;;20.90;96.50;;;;;;6288028;22;20003;-96
2021/08/11 03:16:43;;;;;;;6.57;5.97;;;20.90;96.50;;;;;;6300364;22;20080;-96
2021/08/11 03:19:09;;;;;;;5.90;5.30;;;20.90;96.50;;;;;;6296527;22;20037;-96
2021/08/11 03:21:36;;;;;;;6.90;6.20;;;20.90;96.30;;;;;;6297064;22;20030;-96
2021/08/11 03:24:02;;;;;;;7.53;6.25;;;20.90;96.40;;;;;;6296563;22;20353;-96
2021/08/11 03:26:33;;;;;;;6.47;5.88;;;20.80;96.40;;;;;;6296606;22;20026;-96
2021/08/11 03:29:02;;;;;;;9.90;6.63;;;20.80;96.50;;;;;;6297595;22;20029;-96
2021/08/11 03:31:29;;;;;;;7.53;6.82;;;20.80;96.30;;;;;;6295586;22;20006;-95
2021/08/11 03:33:57;;;;;;;6.85;6.15;;;20.80;96.40;;;;;;6307257;22;20003;-95
2021/08/11 03:36:23;;;;;;;6.93;6.28;;;20.80;96.20;;;;;;6308501;22;19993;-95
2021/08/11 03:38:49;;;;;;;9.25;6.93;;;20.80;96.30;;;;;;6307350;22;19986;-95
2021/08/11 03:41:15;;;;;;;7.03;6.38;;;20.80;96.40;;;;;;6306760;22;20011;-95
2021/08/11 03:43:41;;;;;;;7.45;6.75;;;20.80;96.30;;;;;;6331135;22;19991;-96
2021/08/11 03:46:07;;;;;;;7.18;6.15;;;20.80;96.40;;;;;;6306177;22;20006;-96
2021/08/11 03:48:34;;;;;;;6.10;5.50;;;20.80;96.30;;;;;;6302018;22;20015;-96
2021/08/11 03:51:02;;;;;;;6.68;5.97;;;20.80;96.40;;;;;;6303608;22;20477;-95
2021/08/11 03:53:34;;;;;;;6.60;6.00;;;20.90;96.40;;;;;;6299819;22;20003;-95
2021/08/11 03:56:03;;;;;;;7.28;6.57;;;20.90;96.50;;;;;;6301392;22;20024;-96
2021/08/11 03:58:29;;;;;;;6.60;6.00;;;20.90;96.50;;;;;;6301103;22;20008;-96
2021/08/11 04:01:02;;;;;;;7.57;6.35;;;21.00;96.60;;;;;;6297698;22;19987;-96
2021/08/11 04:03:33;;;;;;;;;;;21.00;96.70;;;;;;6301375;22;20011;-96
2021/08/11 04:06:02;;;;;;;6.85;6.05;;;21.00;97.20;;;;;;6300741;22;19906;-96
2021/08/11 04:08:38;;;;;;;7.13;6.18;;;21.00;96.60;;;;;;6300339;22;20003;-96
2021/08/11 04:11:24;;;;;;;7.05;6.35;;;21.00;96.70;;;;;;6325742;22;20011;-96
2021/08/11 04:13:53;;;;;;;7.57;6.20;;;21.10;96.60;;;;;;6301322;22;20021;-96
2021/08/11 04:16:21;;;;;;;7.38;6.68;;;21.10;96.50;;;;;;6300571;22;19996;-96
2021/08/11 04:18:52;;;;;;;8.65;6.25;;;21.10;96.50;;;;;;6287599;22;20078;-96
2021/08/11 04:21:20;;;;;;;7.05;6.35;;;21.10;96.40;;;;;;6295917;22;20017;-96
2021/08/11 04:23:56;;;;;;;8.15;6.47;;;21.20;96.30;;;;;;6297737;22;19995;-96
2021/08/11 04:26:22;;;;;;;7.15;6.45;;;21.20;96.20;;;;;;6296405;22;20082;-96
2021/08/11 04:28:51;;;;;;;7.22;6.53;;;21.30;96.00;;;;;;6297162;22;20007;-96
2021/08/11 04:31:17;;;;;;;6.65;6.05;;;21.30;95.80;;;;;;6298221;22;20025;-95
2021/08/11 04:33:43;;;;;;;8.15;6.85;;;21.40;95.80;;;;;;6296303;22;19999;-96
2021/08/11 04:36:09;;;;;;;8.43;6.22;;;21.50;95.60;;;;;;6295653;22;20002;-96
2021/08/11 04:38:40;;;;;;;7.00;6.30;;;21.60;95.50;;;;;;6292056;22;20007;-96
2021/08/11 04:41:06;;;;;;;7.60;6.90;;;21.60;95.20;;;;;;6294376;22;20014;-96
2021/08/11 04:43:34;;;;;;;6.78;6.18;;;21.70;95.00;;;;;;6294910;22;20358;-96
2021/08/11 04:46:00;;;;;;;6.88;6.28;;;21.70;94.80;;;;;;6319144;22;20047;-96
2021/08/11 04:48:26;;;;;;;8.00;6.53;;;21.70;94.70;;;;;;6288960;22;20023;-96
2021/08/11 04:50:52;;;;;;;7.15;6.45;;;21.70;94.50;;;;;;6292089;22;20003;-96
2021/08/11 04:53:20;;;;;;;7.35;6.13;;;21.70;94.20;;;;;;6289440;22;20000;-96
2021/08/11 04:55:49;;;;;;;6.93;6.22;;;21.80;94.00;;;;;;6293984;22;19999;-96
2021/08/11 04:58:15;;;;;;;6.45;5.85;;;21.80;93.90;;;;;;6287914;22;20010;-96
2021/08/11 05:00:40;;;;;;;7.50;5.47;;;21.80;93.90;;;;;;6287079;22;20303;-96
2021/08/11 05:03:10;;;;;;;6.28;5.68;;;21.80;94.00;;;;;;6315629;22;20006;-96
2021/08/11 05:05:42;;;;;;;6.53;5.80;;;21.90;93.70;;;;;;6287041;22;19999;-95
2021/08/11 05:08:13;;;;;;;6.30;5.70;;;22.00;93.60;;;;;;6285958;22;19999;-96
2021/08/11 05:10:39;;;;;;;6.75;5.47;;;22.10;93.40;;;;;;6289583;22;20011;-96
2021/08/11 05:13:14;;;;;;;6.40;5.65;;;22.20;93.10;;;;;;6297530;22;20145;-95
2021/08/11 05:15:46;;;;;;;6.13;5.32;;;22.20;92.70;;;;;;6292244;22;19995;-94
2021/08/11 05:18:24;;;;;;;6.72;6.13;;;22.20;92.70;;;;;;6293890;22;20007;-95
2021/08/11 05:20:59;;;;;;;6.28;5.65;;;22.20;92.60;;;;;;6291875;22;20023;-96
2021/08/11 05:23:35;;;;;;;7.85;6.18;;;22.30;92.50;;;;;;6291088;22;19999;-96
2021/08/11 05:26:12;;;;;;;6.97;6.28;;;22.30;92.40;;;;;;6298214;22;20003;-94
2021/08/11 05:28:59;;;;;;;9.65;6.55;;;22.40;92.40;;;;;;6305534;22;19992;-95
2021/08/11 05:31:25;;;;;;;7.95;7.10;;;22.40;92.40;;;;;;6282125;22;20326;-95
2021/08/11 05:34:03;;;;;;;9.07;6.75;;;22.50;92.10;;;;;;6304188;22;20010;-94
2021/08/11 05:36:34;;;;;;;8.50;6.60;;;22.50;92.00;;;;;;6303572;22;20011;-95
2021/08/11 05:39:02;;;;;;;7.65;6.82;;;22.50;91.90;;;;;;6300152;22;19987;-96
2021/08/11 05:41:38;;;;;;;7.45;6.63;;;22.60;91.90;;;;;;6303213;22;20061;-96
2021/08/11 05:44:08;;;;;;;8.38;7.20;;;22.60;91.80;;;;;;6297529;22;20004;-96
2021/08/11 05:47:04;;;;;;;6.85;6.15;;;22.60;91.70;;;;;;6304972;22;19991;-96
2021/08/11 05:49:54;;;;;;;8.10;6.93;;;22.50;92.00;;;;;;6302857;22;20066;-96
2021/08/11 05:52:39;;;;;;;9.55;7.13;;;22.50;91.60;;;;;;6304287;22;19994;-96
2021/08/11 05:55:15;;;;;;;8.07;7.03;;;22.50;91.70;;;;;;6303603;22;20018;-95
2021/08/11 05:57:50;;;;;;;14.70;7.75;;;22.40;91.90;;;;;;6326120;22;20441;-95
2021/08/11 06:00:16;;;;;;;8.38;7.45;;;22.50;92.30;;;;;;6298699;22;20033;-96
2021/08/11 06:02:48;;;;;;;7.47;6.78;;;22.60;92.00;;;;;;6302266;22;20012;-95
2021/08/11 06:12:00;;;;;;;6.35;5.40;;;23.00;91.80;;;;;;6257780;22;20041;-96
2021/08/11 06:14:41;;;;;;;6.28;5.68;;;23.20;91.60;;;;;;6299763;22;20035;-96
2021/08/11 06:17:17;;;;;;;6.55;5.80;;;23.30;91.30;;;;;;6299150;22;19995;-96
2021/08/11 06:19:45;;;;;;;6.45;5.75;;;23.40;91.40;;;;;;6274971;22;20485;-96
2021/08/11 06:22:40;;;;;;;6.45;5.85;;;23.50;91.00;;;;;;6262692;22;20080;-96
2021/08/11 06:28:51;;;;;;;8.48;6.55;;;23.60;90.80;;;;;;6282157;22;20042;-96
2021/08/11 06:31:18;;;;;;;6.90;6.30;;;23.70;90.70;;;;;;6264408;22;20446;-96
2021/08/11 06:34:10;;;;;;;8.18;7.38;;;23.70;90.70;;;;;;6267235;22;20003;-96
2021/08/11 06:36:56;;;;;;;9.27;7.90;;;23.80;90.40;;;;;;6255070;22;20027;-96
2021/08/11 06:39:25;;;;;;;8.70;7.10;;;23.80;90.50;;;;;;6268021;22;20165;-96
2021/08/11 06:42:02;;;;;;;8.05;7.32;;;23.80;90.60;;;;;;6269330;22;20049;-96
2021/08/11 06:44:38;;;;;;;7.47;6.75;;;24.00;90.50;;;;;;6267723;22;20427;-96
2021/08/11 06:47:36;;;;;;;11.80;8.38;;;24.10;90.30;;;;;;6265824;22;20000;-96
2021/08/11 06:50:11;;;;;;;13.98;8.20;;;24.20;89.70;;;;;;6253204;22;20094;-96
2021/08/11 06:52:37;;;;;;;8.50;7.45;;;24.20;89.60;;;;;;6265389;22;20022;-96
2021/08/11 06:55:07;;;;;;;7.50;6.80;;;24.20;89.60;;;;;;6289543;22;20016;-95
2021/08/11 06:57:51;;;;;;;8.25;7.47;;;24.20;89.90;;;;;;6264399;22;20010;-96
2021/08/11 07:00:50;;;;;;;;;;;;;;;;;;;;;
2021/08/11 07:06:02;;;;;;;7.53;6.72;;;24.50;88.60;;;;;;6231721;23;20024;-96
2021/08/11 07:08:41;;;;;;;8.60;7.28;;;24.50;88.50;;;;;;6239988;23;20004;-96
2021/08/11 07:12:06;;;;;;;;;;;;;;;;;;;;;
2021/08/11 07:20:19;;;;;;;7.75;6.40;;;24.50;88.70;;;;;;6274811;22;20027;-95
2021/08/11 07:23:08;;;;;;;7.43;6.65;;;24.50;88.80;;;;;;6272979;22;20019;-96
2021/08/11 07:25:43;;;;;;;7.60;6.80;;;24.60;88.90;;;;;;6271026;22;20018;-95
2021/08/11 07:31:49;;;;;;;7.15;6.50;;;24.80;88.00;;;;;;6341072;22;20007;-96
2021/08/11 07:34:29;;;;;;;8.23;7.43;;;24.90;87.60;;;;;;6304260;22;20017;-95
2021/08/11 07:46:06;;;;;;;11.23;7.10;;;25.00;87.30;;;;;;6300478;22;20016;-96
2021/08/11 07:49:01;;;;;;;7.35;6.63;;;25.20;87.00;;;;;;6269642;22;20027;-96
2021/08/11 07:51:29;;;;;;;7.95;7.18;;;25.30;86.40;;;;;;6272273;22;20015;-94
2021/08/11 07:54:09;;;;;;;8.70;7.80;;;25.40;85.70;;;;;;6273961;22;20071;-96
2021/08/11 07:57:08;;;;;;;8.60;7.03;;;25.40;85.40;;;;;;6278339;22;20086;-96
2021/08/11 07:59:55;;;;;;;8.07;7.22;;;25.50;85.10;;;;;;6280525;22;20016;-96
2021/08/11 08:02:51;;;;;;;10.48;8.13;;;25.60;84.80;;;;;;6268228;22;20012;-95
2021/08/11 08:05:23;;;;;;;9.60;8.02;;;25.60;84.40;;;;;;6240611;22;20011;-96
2021/08/11 08:07:55;;;;;;;9.57;8.57;;;25.70;84.40;;;;;;6266149;22;20000;-96
2021/08/11 08:10:25;;;;;;;10.20;7.40;;;25.80;83.90;;;;;;6265313;22;20010;-95
2021/08/11 08:12:59;;;;;;;8.38;7.40;;;25.90;83.90;;;;;;6270371;22;20037;-96
2021/08/11 08:15:39;;;;;;;8.20;7.40;;;26.00;83.30;;;;;;6295133;22;20030;-94
2021/08/11 08:18:08;;;;;;;7.57;6.88;;;26.10;83.00;;;;;;6318848;22;20009;-93
2021/08/11 08:20:42;;;;;;;8.57;7.78;;;26.20;82.90;;;;;;6269696;22;19995;-95
2021/08/11 08:23:12;;;;;;;8.27;7.47;;;26.30;82.10;;;;;;6300194;22;20433;-95
2021/08/11 08:25:41;;;;;;;8.65;7.05;;;26.40;81.90;;;;;;6294622;22;19999;-96
2021/08/11 08:28:14;;;;;;;9.15;7.70;;;26.40;81.70;;;;;;6301615;22;20009;-96
2021/08/11 08:30:45;;;;;;;7.18;6.47;;;26.50;81.90;;;;;;6290096;22;20613;-95
2021/08/11 08:33:14;;;;;;;6.65;6.05;;;26.50;81.50;;;;;;6267007;22;20011;-96
2021/08/11 08:36:38;;;;;;;8.43;7.63;;;26.70;81.30;;;;;;6291387;22;20010;-95
2021/08/11 08:49:54;;;;;;;7.03;6.32;;;27.00;78.70;;;;;;6318092;22;20023;-94
2021/08/11 08:55:53;;;;;;;7.32;6.43;;;27.10;77.60;;;;;;6316606;22;20042;-94
2021/08/11 08:58:25;;;;;;;6.90;6.20;;;27.10;78.20;;;;;;6292322;22;19999;-96
2021/08/11 09:00:54;;;;;;;6.63;5.95;;;27.20;77.30;;;;;;6287965;22;20449;-91
2021/08/11 09:03:19;;;;;;;6.15;4.97;;;27.20;76.30;;;;;;6283034;22;20140;-92
2021/08/11 09:05:46;;;;;;;12.50;6.25;;;27.30;76.80;;;;;;6253839;22;20374;-95
2021/08/11 09:08:12;;;;;;;6.55;5.43;;;27.40;76.10;;;;;;6261865;22;20000;-93
2021/08/11 09:10:41;;;;;;;6.22;5.63;;;27.40;75.90;;;;;;6251606;22;20055;-93
2021/08/11 09:13:33;;;;;;;5.95;5.35;;;27.50;75.40;;;;;;6254847;22;19996;-93
2021/08/11 09:16:43;;;;;;;6.72;6.10;;;27.70;75.00;;;;;;6254026;22;20034;-95
2021/08/11 09:19:14;;;;;;;5.90;5.30;;;27.70;73.90;;;;;;6251823;22;20027;-93
2021/08/11 09:21:41;;;;;;;6.75;6.05;;;27.80;74.00;;;;;;6252950;22;20030;-90
2021/08/11 09:24:17;;;;;;;6.05;5.47;;;27.90;74.10;;;;;;6249801;22;20000;-93
2021/08/11 09:26:44;;;;;;;6.18;5.60;;;27.90;74.10;;;;;;6251464;22;20003;-91
2021/08/11 09:29:23;;;;;;;;;;;;;;;;;;;;;
2021/08/11 09:32:05;;;;;;;5.57;5.05;;;28.10;72.80;;;;;;6277184;22;20498;-92
2021/08/11 09:34:43;;;;;;;6.18;5.53;;;28.10;73.30;;;;;;6229012;22;20003;-91
2021/08/11 09:38:08;;;;;;;6.53;5.85;;;28.20;73.00;;;;;;6249635;22;20057;-92
2021/08/11 09:40:38;;;;;;;5.47;4.95;;;28.30;72.90;;;;;;6235722;22;20347;-91
2021/08/11 09:43:47;;;;;;;;;;;;;;;;;;;;;
2021/08/11 09:46:29;;;;;;;6.10;5.50;;;28.30;71.30;;;;;;6241882;22;20015;-95
2021/08/11 09:49:25;;;;;;;;;;;;;;;;;;;;;
2021/08/11 09:52:19;;;;;;;6.97;5.85;;;28.10;71.90;;;;;;6292791;22;20002;-95
2021/08/11 09:55:19;;;;;;;6.38;5.75;;;28.20;72.10;;;;;;6293001;22;20003;-96
2021/08/11 09:58:02;;;;;;;6.25;5.57;;;28.30;71.80;;;;;;6267582;22;20087;-96
2021/08/11 10:00:37;;;;;;;;;;;28.40;70.60;;;;;;6258608;22;20003;-96
2021/08/11 10:03:22;;;;;;;;;;;;;;;;;;;;;
2021/08/11 10:06:14;;;;;;;6.40;5.70;;;28.40;70.80;;;;;;6283672;22;20004;-96
2021/08/11 10:08:53;;;;;;;6.88;5.47;;;28.40;70.20;;;;;;6271717;22;20011;-96
2021/08/11 10:14:40;;;;;;;5.60;5.10;;;28.50;69.90;;;;;;6287317;22;20004;-96
2021/08/11 10:18:05;;;;;;;6.07;5.57;;;28.60;70.20;;;;;;6241923;22;20091;-96
2021/08/11 10:21:14;;;;;;;5.70;5.20;;;28.60;69.60;;;;;;6207182;22;20262;-96
2021/08/11 10:41:22;;;;;;;;;;;;;;;;;;;;;
2021/08/11 10:50:54;;;;;;;5.63;4.78;;;29.00;67.20;;;;;;6235210;22;20024;-96
2021/08/11 10:54:09;;;;;;;;;;;;;;;;;;;;;
2021/08/11 10:57:29;;;;;;;5.72;5.13;;;29.10;66.80;;;;;;6236396;22;20004;-96
2021/08/11 11:03:51;;;;;;;5.72;5.22;;;29.10;66.30;;;;;;6132698;23;20013;-94
2021/08/11 11:26:56;;;;;;;4.95;4.55;;;29.30;64.00;;;;;;6283803;22;20331;-96
2021/08/11 11:29:55;;;;;;;6.97;4.60;;;29.20;64.00;;;;;;6260905;22;20012;-96
2021/08/11 11:32:24;;;;;;;5.07;4.57;;;29.30;63.60;;;;;;6267190;22;20053;-95
2021/08/11 11:35:38;;;;;;;;;;;;;;;;;;;;;
2021/08/11 11:38:26;;;;;;;;;;;29.60;63.20;;;;;;6297116;22;20000;-95
2021/08/11 11:41:20;;;;;;;5.57;4.80;;;29.60;61.90;;;;;;6299594;22;19941;-95
2021/08/11 11:43:45;;;;;;;5.07;4.55;;;29.60;61.90;;;;;;6216051;22;20026;-95
2021/08/11 11:46:47;;;;;;;5.47;4.97;;;29.60;61.80;;;;;;6265977;22;20084;-96
2021/08/11 11:49:42;;;;;;;5.28;4.25;;;29.60;61.60;;;;;;6263606;22;20071;-96
2021/08/11 11:52:39;;;;;;;4.10;3.72;;;29.60;61.60;;;;;;6294763;22;20014;-95
2021/08/11 11:55:41;;;;;;;4.50;4.10;;;29.60;61.20;;;;;;6265564;22;20026;-96
2021/08/11 11:58:34;;;;;;;4.72;4.32;;;29.70;60.50;;;;;;6245814;22;20014;-94
2021/08/11 12:01:11;;;;;;;4.50;4.10;;;29.70;61.20;;;;;;6239580;22;20153;-94
2021/08/11 12:03:53;;;;;;;5.63;4.63;;;29.70;61.20;;;;;;6275898;22;20003;-94
2021/08/11 12:06:43;;;;;;;6.53;4.25;;;29.80;60.30;;;;;;6255403;22;20007;-96
2021/08/11 12:09:09;;;;;;;6.03;4.45;;;29.90;59.30;;;;;;6254123;22;20033;-94
2021/08/11 12:11:51;;;;;;;;;;;;;;;;;;;;;
2021/08/11 12:17:29;;;;;;;4.38;3.97;;;29.80;60.50;;;;;;6296193;22;20271;-96
2021/08/11 12:23:31;;;;;;;;;;;;;;;;;;;;;
2021/08/11 12:26:12;;;;;;;4.43;4.03;;;30.10;59.20;;;;;;6285293;22;20023;-96
2021/08/11 12:28:54;;;;;;;4.22;3.92;;;30.30;59.70;;;;;;6258932;22;20007;-96
2021/08/11 12:34:53;;;;;;;4.60;4.20;;;30.70;57.50;;;;;;6265483;22;20073;-96
2021/08/11 13:24:05;;;;;;;4.88;3.75;;;33.80;49.90;;;;;;6279718;22;20008;-96
2021/08/11 13:47:10;;;;;;;3.50;3.17;;;34.30;47.50;;;;;;6279543;22;20019;-93
2021/08/11 13:56:13;;;;;;;;;;;;;;;;;;;;;
2021/08/11 14:42:30;;;;;;;3.55;3.25;;;35.70;41.00;;;;;;6295231;22;20031;-96
2021/08/11 14:45:24;;;;;;;3.40;3.10;;;35.70;41.30;;;;;;6266042;22;20012;-96
2021/08/11 14:50:31;;;;;;;3.70;3.38;;;35.90;41.70;;;;;;6297456;22;20043;-94
2021/08/11 15:01:14;;;;;;;4.20;3.80;;;36.70;40.30;;;;;;6291183;22;20102;-94
2021/08/11 15:09:01;;;;;;;5.88;3.60;;;36.10;39.40;;;;;;6281030;22;20019;-94
2021/08/11 15:11:35;;;;;;;4.35;3.95;;;36.00;39.80;;;;;;6297055;22;20014;-95
2021/08/11 15:14:01;;;;;;;3.85;3.50;;;35.70;39.60;;;;;;6262688;22;19996;-93
2021/08/11 15:17:46;;;;;;;3.95;3.60;;;35.40;39.20;;;;;;6261261;22;20015;-94
2021/08/11 15:20:15;;;;;;;3.60;3.30;;;35.00;39.10;;;;;;6020473;23;20098;-96
2021/08/11 15:22:51;;;;;;;3.17;2.88;;;34.90;40.20;;;;;;6022432;23;20020;-96
2021/08/11 15:25:18;;;;;;;5.88;3.25;;;35.10;40.40;;;;;;6233557;22;20431;-93
2021/08/11 15:27:44;;;;;;;3.28;3.05;;;35.20;40.10;;;;;;6257612;22;20010;-94
2021/08/11 15:30:13;;;;;;;3.70;3.40;;;35.30;39.70;;;;;;6261475;22;20026;-96
2021/08/11 15:32:41;;;;;;;3.20;2.90;;;35.40;39.70;;;;;;6261561;22;20059;-94
2021/08/11 15:35:15;;;;;;;2.90;2.70;;;35.40;39.60;;;;;;6262336;22;20010;-92
2021/08/11 15:37:47;;;;;;;3.58;3.28;;;35.40;39.80;;;;;;6272778;22;20022;-94
2021/08/11 15:40:21;;;;;;;3.28;3.00;;;35.50;38.80;;;;;;6274389;22;20012;-92
2021/08/11 15:42:47;;;;;;;3.70;3.30;;;35.40;39.00;;;;;;6274228;22;20059;-92
2021/08/11 15:45:32;;;;;;;3.10;2.80;;;35.40;39.50;;;;;;6272946;22;20006;-92
2021/08/11 15:48:44;;;;;;;4.43;3.15;;;35.40;39.10;;;;;;6263373;22;20000;-93
2021/08/11 15:51:15;;;;;;;3.60;3.30;;;35.30;38.80;;;;;;6281702;22;20027;-94
2021/08/11 15:56:36;;;;;;;6.22;3.05;;;35.20;39.30;;;;;;6247617;22;20019;-94
2021/08/11 15:59:08;;;;;;;3.67;3.38;;;35.30;38.40;;;;;;6253674;22;20023;-95
2021/08/11 16:01:36;;;;;;;5.53;3.40;;;35.10;37.80;;;;;;6252428;22;20006;-95
2021/08/11 16:04:07;;;;;;;3.05;2.85;;;34.90;38.10;;;;;;6253013;22;20007;-95
2021/08/11 16:09:23;;;;;;;3.45;3.15;;;34.80;37.80;;;;;;6272988;22;20034;-96
2021/08/11 16:11:53;;;;;;;3.30;3.00;;;34.70;37.70;;;;;;6276618;22;20031;-96
2021/08/11 16:14:44;;;;;;;3.13;2.90;;;34.60;38.20;;;;;;6269974;22;20012;-96
2021/08/11 16:20:01;;;;;;;3.30;3.00;;;34.50;37.70;;;;;;6330609;22;20017;-96
2021/08/11 17:15:05;;;;;;;;;;;;;;;;;;;;;
2021/08/11 17:17:41;;;;;;;3.90;3.50;;;27.70;45.70;;;;;;6233315;22;19999;-95
2021/08/11 17:20:19;;;;;;;3.72;3.25;;;27.50;46.00;;;;;;6250532;22;20234;-96
2021/08/11 17:22:45;;;;;;;4.13;3.70;;;27.40;46.40;;;;;;6248443;22;19996;-95
2021/08/11 17:25:12;;;;;;;4.13;3.30;;;27.30;46.80;;;;;;6275631;22;20003;-94
2021/08/11 17:27:38;;;;;;;4.00;3.35;;;27.10;47.10;;;;;;6228227;22;20012;-93
2021/08/11 17:30:06;;;;;;;3.40;3.10;;;27.00;47.20;;;;;;6250907;22;20622;-94
2021/08/11 17:32:32;;;;;;;3.67;3.28;;;26.90;47.60;;;;;;6249017;22;20003;-94
2021/08/11 17:34:58;;;;;;;4.07;3.75;;;26.80;47.90;;;;;;6249754;22;20307;-92
2021/08/11 17:37:23;;;;;;;5.00;3.53;;;26.70;48.30;;;;;;6250723;22;20003;-91
2021/08/11 17:39:49;;;;;;;3.88;3.13;;;26.60;48.50;;;;;;6251777;22;20019;-93
2021/08/11 17:42:15;;;;;;;3.40;3.10;;;26.60;48.80;;;;;;6253524;22;20000;-93
2021/08/11 17:44:40;;;;;;;3.58;3.28;;;26.50;48.80;;;;;;6254619;22;19996;-92
2021/08/11 17:47:06;;;;;;;3.70;3.22;;;26.40;49.10;;;;;;6254063;22;20000;-92
2021/08/11 17:49:32;;;;;;;3.60;3.28;;;26.30;49.40;;;;;;6251376;22;19996;-94
2021/08/11 17:51:58;;;;;;;3.90;3.60;;;26.20;49.50;;;;;;6251225;22;19996;-94
2021/08/11 17:54:23;;;;;;;4.30;3.90;;;26.20;49.90;;;;;;6252373;22;20299;-93
2021/08/11 17:56:49;;;;;;;3.45;3.00;;;26.10;50.20;;;;;;6251325;22;19996;-94
2021/08/11 17:59:15;;;;;;;3.97;3.58;;;26.00;50.20;;;;;;6252566;22;20004;-94
2021/08/11 18:01:42;;;;;;;3.70;3.35;;;26.00;50.50;;;;;;6251494;22;20004;-94
2021/08/11 18:04:08;;;;;;;5.63;3.65;;;25.90;50.70;;;;;;6277688;22;20422;-93
2021/08/11 18:06:33;;;;;;;4.80;3.97;;;25.80;50.90;;;;;;6251358;22;20000;-93
2021/08/11 18:09:00;;;;;;;3.38;3.08;;;25.80;51.30;;;;;;6251856;22;20004;-94
2021/08/11 18:11:26;;;;;;;5.38;3.72;;;25.70;51.50;;;;;;6251096;22;20058;-94
2021/08/11 18:13:51;;;;;;;5.43;3.40;;;25.60;51.70;;;;;;6251109;22;20020;-93
2021/08/11 18:16:20;;;;;;;3.97;3.45;;;25.60;51.90;;;;;;6251869;22;20034;-93
2021/08/11 18:18:46;;;;;;;4.30;3.53;;;25.50;52.10;;;;;;6251446;22;19995;-93
2021/08/11 18:21:12;;;;;;;4.85;3.53;;;25.40;52.40;;;;;;6251490;22;20000;-93
2021/08/11 18:23:38;;;;;;;4.20;3.80;;;25.40;52.70;;;;;;6251739;22;20031;-93
2021/08/11 18:26:04;;;;;;;4.15;3.60;;;25.30;52.80;;;;;;6251236;22;19999;-93
2021/08/11 18:28:30;;;;;;;4.30;3.78;;;25.20;53.00;;;;;;6251913;22;20000;-93
2021/08/11 18:30:56;;;;;;;7.43;3.60;;;25.20;53.30;;;;;;6278474;22;20403;-93
2021/08/11 18:33:21;;;;;;;4.93;4.13;;;25.10;53.40;;;;;;6251262;22;19996;-92
2021/08/11 18:35:47;;;;;;;4.32;3.92;;;25.10;53.70;;;;;;6251463;22;20073;-93
2021/08/11 18:38:13;;;;;;;4.97;3.85;;;25.00;53.80;;;;;;6251197;22;19999;-93
2021/08/11 18:40:40;;;;;;;4.45;3.72;;;25.00;53.90;;;;;;6251373;22;20035;-93
2021/08/11 18:43:06;;;;;;;4.38;3.97;;;24.90;54.10;;;;;;6251626;22;20048;-94
2021/08/11 18:45:32;;;;;;;6.55;4.00;;;24.90;54.20;;;;;;6251248;22;20324;-94
2021/08/11 18:47:58;;;;;;;3.55;3.25;;;24.80;54.20;;;;;;6251040;22;20035;-94